createdAt,value
2019-04-04T00:01:37.711Z,8.78
2019-04-04T00:04:07.208Z,8.75
2019-04-04T00:06:36.655Z,8.72
2019-04-04T00:09:09.844Z,8.68
2019-04-04T00:11:39.378Z,8.65
2019-04-04T00:14:09.068Z,8.63
2019-04-04T00:16:38.526Z,8.59
2019-04-04T00:19:07.979Z,8.57
2019-04-04T00:21:37.553Z,8.53
2019-04-04T00:24:08.929Z,8.50
2019-04-04T00:26:38.320Z,8.45
2019-04-04T00:29:07.770Z,8.42
2019-04-04T00:31:37.259Z,8.39
2019-04-04T00:34:06.791Z,8.34
2019-04-04T00:36:36.272Z,8.29
2019-04-04T00:39:26.655Z,8.25
2019-04-04T00:41:56.327Z,8.22
2019-04-04T00:44:25.775Z,8.18
2019-04-04T00:46:55.322Z,8.17
2019-04-04T00:49:24.789Z,8.13
2019-04-04T00:51:54.238Z,8.12
2019-04-04T00:54:23.737Z,8.11
2019-04-04T00:56:53.217Z,8.08
2019-04-04T00:59:23.055Z,8.05
2019-04-04T01:01:53.168Z,8.03
2019-04-04T01:04:22.777Z,8.01
2019-04-04T01:06:52.183Z,7.98
2019-04-04T01:09:21.727Z,7.95
2019-04-04T01:11:51.876Z,7.94
2019-04-04T01:14:21.482Z,7.91
2019-04-04T01:16:50.928Z,7.87
2019-04-04T01:19:39.772Z,7.84
2019-04-04T01:22:09.297Z,7.80
2019-04-04T01:24:38.791Z,7.76
2019-04-04T01:27:08.270Z,7.73
2019-04-04T01:29:39.000Z,7.68
2019-04-04T01:32:09.177Z,7.63
2019-04-04T01:34:38.641Z,7.57
2019-04-04T01:37:08.107Z,7.53
2019-04-04T01:39:37.605Z,7.47
2019-04-04T01:42:07.893Z,7.41
2019-04-04T01:44:40.163Z,7.37
2019-04-04T01:47:09.920Z,7.33
2019-04-04T01:49:39.463Z,7.30
2019-04-04T01:52:08.905Z,7.26
2019-04-04T01:54:41.416Z,7.23
2019-04-04T01:57:10.908Z,7.20
2019-04-04T01:59:41.980Z,7.16
2019-04-04T02:02:11.750Z,7.12
2019-04-04T02:04:41.243Z,7.09
2019-04-04T02:07:10.697Z,7.05
2019-04-04T02:09:40.163Z,7.02
2019-04-04T02:12:09.690Z,7.01
2019-04-04T02:14:39.167Z,6.97
2019-04-04T02:17:08.630Z,6.94
2019-04-04T02:19:38.188Z,6.92
2019-04-04T02:22:07.739Z,6.90
2019-04-04T02:24:37.308Z,6.88
2019-04-04T02:27:07.547Z,6.85
2019-04-04T02:29:37.014Z,6.83
2019-04-04T02:32:08.133Z,6.80
2019-04-04T02:34:38.429Z,6.76
2019-04-04T02:37:21.339Z,6.73
2019-04-04T02:39:51.417Z,6.70
2019-04-04T02:42:22.287Z,6.66
2019-04-04T02:44:52.455Z,6.63
2019-04-04T02:47:22.117Z,6.61
2019-04-04T02:49:51.591Z,6.59
2019-04-04T02:52:21.077Z,6.58
2019-04-04T02:54:50.672Z,6.56
2019-04-04T02:57:22.150Z,6.55
2019-04-04T02:59:53.519Z,6.53
2019-04-04T03:02:22.668Z,6.53
2019-04-04T03:04:52.164Z,6.53
2019-04-04T03:07:21.605Z,6.54
2019-04-04T03:09:51.363Z,6.55
2019-04-04T03:12:20.883Z,6.58
2019-04-04T03:14:50.876Z,6.61
2019-04-04T03:17:20.575Z,6.63
2019-04-04T03:19:50.078Z,6.66
2019-04-04T03:22:19.507Z,6.70
2019-04-04T03:24:48.990Z,6.72
2019-04-04T03:27:18.677Z,6.75
2019-04-04T03:29:48.161Z,6.78
2019-04-04T03:32:17.811Z,6.80
2019-04-04T03:34:51.375Z,6.84
2019-04-04T03:37:21.508Z,6.84
2019-04-04T03:39:53.117Z,6.85
2019-04-04T03:42:22.306Z,6.88
2019-04-04T03:44:53.255Z,6.91
2019-04-04T03:47:22.981Z,6.92
2019-04-04T03:49:56.359Z,6.93
2019-04-04T03:52:23.691Z,6.95
2019-04-04T03:54:56.241Z,6.97
2019-04-04T03:57:24.409Z,7.00
2019-04-04T03:59:53.908Z,7.03
2019-04-04T04:02:23.355Z,7.05
2019-04-04T04:04:52.904Z,7.06
2019-04-04T04:07:22.399Z,7.08
2019-04-04T04:09:51.894Z,7.10
2019-04-04T04:12:21.329Z,7.13
2019-04-04T04:14:53.813Z,7.16
2019-04-04T04:17:21.981Z,7.20
2019-04-04T04:19:51.461Z,7.23
2019-04-04T04:22:20.916Z,7.25
2019-04-04T04:24:50.419Z,7.28
2019-04-04T04:27:19.876Z,7.30
2019-04-04T04:29:49.357Z,7.33
2019-04-04T04:32:21.231Z,7.36
2019-04-04T04:34:50.067Z,7.37
2019-04-04T04:37:20.364Z,7.37
2019-04-04T04:39:50.586Z,7.36
2019-04-04T04:42:21.329Z,7.35
2019-04-04T04:44:50.971Z,7.33
2019-04-04T04:47:22.910Z,7.31
2019-04-04T04:49:55.018Z,7.31
2019-04-04T04:52:22.823Z,7.29
2019-04-04T04:54:54.790Z,7.28
2019-04-04T04:57:29.867Z,7.28
2019-04-04T04:59:54.910Z,7.27
2019-04-04T05:02:24.467Z,7.28
2019-04-04T05:04:53.921Z,7.30
2019-04-04T05:07:23.418Z,7.32
2019-04-04T05:09:52.884Z,7.33
2019-04-04T05:12:22.395Z,7.36
2019-04-04T05:14:51.844Z,7.37
2019-04-04T05:17:21.397Z,7.40
2019-04-04T05:19:50.887Z,7.43
2019-04-04T05:22:20.395Z,7.46
2019-04-04T05:25:06.719Z,7.47
2019-04-04T05:27:21.134Z,7.51
2019-04-04T05:29:50.644Z,7.54
2019-04-04T05:32:21.774Z,7.56
2019-04-04T05:34:51.381Z,7.56
2019-04-04T05:37:20.824Z,7.58
2019-04-04T05:39:51.355Z,7.60
2019-04-04T05:42:21.665Z,7.62
2019-04-04T05:44:51.125Z,7.64
2019-04-04T05:47:22.892Z,7.65
2019-04-04T05:49:52.018Z,7.67
2019-04-04T05:52:21.530Z,7.69
2019-04-04T05:54:50.983Z,7.72
2019-04-04T05:57:20.769Z,7.73
2019-04-04T05:59:50.254Z,7.76
2019-04-04T06:02:19.803Z,7.78
2019-04-04T06:04:51.334Z,7.81
2019-04-04T06:07:20.500Z,7.81
2019-04-04T06:09:49.942Z,7.83
2019-04-04T06:12:19.434Z,7.86
2019-04-04T06:14:48.894Z,7.88
2019-04-04T06:17:18.377Z,7.92
2019-04-04T06:19:47.827Z,7.96
2019-04-04T06:22:20.777Z,7.98
2019-04-04T06:24:48.516Z,8.00
2019-04-04T06:27:18.010Z,8.03
2019-04-04T06:29:48.294Z,8.07
2019-04-04T06:32:17.784Z,8.11
2019-04-04T06:34:47.274Z,8.15
2019-04-04T06:37:18.054Z,8.20
2019-04-04T06:39:47.914Z,8.25
2019-04-04T06:42:17.408Z,8.31
2019-04-04T06:44:46.866Z,8.38
2019-04-04T06:47:16.604Z,8.44
2019-04-04T06:49:47.762Z,8.48
2019-04-04T06:52:18.451Z,8.54
2019-04-04T06:54:48.641Z,8.58
2019-04-04T06:57:18.138Z,8.64
2019-04-04T06:59:47.586Z,8.67
2019-04-04T07:02:17.160Z,8.71
2019-04-04T07:04:46.631Z,8.76
2019-04-04T07:07:16.231Z,8.81
2019-04-04T07:09:45.707Z,8.87
2019-04-04T07:12:22.261Z,8.93
2019-04-04T07:14:49.371Z,8.98
2019-04-04T07:17:17.605Z,9.03
2019-04-04T07:19:47.121Z,9.09
2019-04-04T07:22:16.611Z,9.14
2019-04-04T07:24:46.081Z,9.19
2019-04-04T07:27:16.263Z,9.25
2019-04-04T07:29:46.470Z,9.32
2019-04-04T07:32:15.923Z,9.38
2019-04-04T07:34:45.943Z,9.44
2019-04-04T07:37:15.503Z,9.49
2019-04-04T07:39:44.962Z,9.54
2019-04-04T07:42:15.879Z,9.59
2019-04-04T07:44:45.660Z,9.65
2019-04-04T07:47:16.037Z,9.69
2019-04-04T07:49:46.210Z,9.76
2019-04-04T07:52:17.185Z,9.79
2019-04-04T07:54:46.974Z,9.84
2019-04-04T07:57:17.350Z,9.87
2019-04-04T07:59:47.662Z,9.88
2019-04-04T08:02:17.140Z,9.91
2019-04-04T08:04:46.711Z,9.94
2019-04-04T08:07:16.279Z,9.96
2019-04-04T08:09:45.747Z,10.00
2019-04-04T08:12:15.242Z,10.01
2019-04-04T08:14:44.710Z,10.02
2019-04-04T08:17:14.226Z,10.04
2019-04-04T08:19:43.702Z,10.04
2019-04-04T08:22:13.336Z,10.05
2019-04-04T08:24:42.897Z,10.08
2019-04-04T08:27:12.388Z,10.12
2019-04-04T08:29:41.848Z,10.17
2019-04-04T08:32:11.334Z,10.22
2019-04-04T08:34:40.847Z,10.26
2019-04-04T08:37:10.311Z,10.30
2019-04-04T08:39:39.846Z,10.32
2019-04-04T08:42:09.331Z,10.32
2019-04-04T08:44:38.866Z,10.34
2019-04-04T08:47:08.411Z,10.36
2019-04-04T08:49:37.866Z,10.37
2019-04-04T08:52:16.584Z,10.36
2019-04-04T08:54:38.650Z,10.35
2019-04-04T08:57:08.149Z,10.35
2019-04-04T08:59:37.636Z,10.35
2019-04-04T09:02:07.184Z,10.35
2019-04-04T09:04:36.691Z,10.35
2019-04-04T09:07:06.150Z,10.33
2019-04-04T09:09:35.785Z,10.34
2019-04-04T09:12:05.636Z,10.34
2019-04-04T09:14:35.122Z,10.33
2019-04-04T09:17:04.588Z,10.34
2019-04-04T09:19:34.084Z,10.35
2019-04-04T09:22:03.573Z,10.35
2019-04-04T09:24:33.060Z,10.36
2019-04-04T09:27:02.633Z,10.39
2019-04-04T09:29:32.092Z,10.41
2019-04-04T09:32:01.630Z,10.44
2019-04-04T09:34:31.131Z,10.47
2019-04-04T09:37:00.599Z,10.52
2019-04-04T09:39:30.087Z,10.58
2019-04-04T09:41:59.552Z,10.64
2019-04-04T09:44:29.047Z,10.69
2019-04-04T09:47:05.372Z,10.76
2019-04-04T09:49:29.813Z,10.81
2019-04-04T09:51:59.319Z,10.87
2019-04-04T09:54:28.826Z,10.92
2019-04-04T09:56:58.431Z,10.96
2019-04-04T09:59:27.945Z,11.00
2019-04-04T10:01:57.388Z,11.02
2019-04-04T10:04:26.899Z,11.01
2019-04-04T10:06:56.433Z,11.00
2019-04-04T10:09:25.929Z,10.99
2019-04-04T10:11:55.510Z,11.02
2019-04-04T10:14:25.135Z,11.04
2019-04-04T10:16:54.567Z,11.10
2019-04-04T10:19:24.062Z,11.14
2019-04-04T10:21:53.529Z,11.18
2019-04-04T10:24:23.042Z,11.23
2019-04-04T10:26:52.589Z,11.30
2019-04-04T10:29:22.201Z,11.37
2019-04-04T10:31:51.707Z,11.43
2019-04-04T10:34:21.202Z,11.48
2019-04-04T10:36:50.771Z,11.53
2019-04-04T10:39:28.829Z,11.58
2019-04-04T10:41:51.455Z,11.62
2019-04-04T10:44:20.970Z,11.67
2019-04-04T10:46:50.437Z,11.71
2019-04-04T10:49:19.932Z,11.77
2019-04-04T10:51:49.432Z,11.84
2019-04-04T10:54:18.914Z,11.90
2019-04-04T10:56:48.454Z,11.94
2019-04-04T10:59:17.981Z,11.98
2019-04-04T11:01:47.484Z,12.04
2019-04-04T11:04:17.020Z,12.09
2019-04-04T11:06:46.476Z,12.12
2019-04-04T11:09:15.972Z,12.15
2019-04-04T11:11:45.472Z,12.17
2019-04-04T11:14:15.001Z,12.19
2019-04-04T11:16:44.646Z,12.21
2019-04-04T11:19:14.131Z,12.24
2019-04-04T11:21:43.600Z,12.24
2019-04-04T11:24:13.167Z,12.22
2019-04-04T11:26:42.647Z,12.21
2019-04-04T11:29:12.151Z,12.21
2019-04-04T11:31:41.817Z,12.18
2019-04-04T11:34:11.302Z,12.17
2019-04-04T11:36:40.787Z,12.13
2019-04-04T11:39:10.303Z,12.07
2019-04-04T11:41:39.838Z,12.02
2019-04-04T11:44:09.391Z,11.95
2019-04-04T11:46:38.915Z,11.89
2019-04-04T11:49:08.472Z,11.86
2019-04-04T11:51:37.926Z,11.81
2019-04-04T11:54:07.483Z,11.77
2019-04-04T11:56:37.046Z,11.73
2019-04-04T11:59:08.120Z,11.70
2019-04-04T12:01:39.457Z,11.68
2019-04-04T12:04:09.025Z,11.67
2019-04-04T12:06:38.605Z,11.65
2019-04-04T12:09:08.887Z,11.66
2019-04-04T12:11:38.396Z,11.66
2019-04-04T12:14:08.039Z,11.67
2019-04-04T12:16:37.517Z,11.69
2019-04-04T12:19:07.040Z,11.70
2019-04-04T12:21:36.700Z,11.72
2019-04-04T12:24:06.347Z,11.74
2019-04-04T12:26:35.825Z,11.75
2019-04-04T12:29:05.430Z,11.74
2019-04-04T12:31:35.055Z,11.70
2019-04-04T12:34:04.517Z,11.70
2019-04-04T12:36:34.035Z,11.72
2019-04-04T12:39:03.630Z,11.75
2019-04-04T12:41:33.134Z,11.78
2019-04-04T12:44:02.618Z,11.80
2019-04-04T12:46:32.151Z,11.82
2019-04-04T12:49:01.741Z,11.85
2019-04-04T12:51:31.206Z,11.91
2019-04-04T12:54:00.751Z,11.96
2019-04-04T12:56:30.368Z,11.96
2019-04-04T12:58:59.867Z,11.95
2019-04-04T13:01:29.327Z,11.93
2019-04-04T13:03:58.834Z,11.87
2019-04-04T13:06:28.305Z,11.82
2019-04-04T13:08:57.830Z,11.78
2019-04-04T13:11:27.557Z,11.72
2019-04-04T13:13:57.123Z,11.66
2019-04-04T13:16:26.618Z,11.61
2019-04-04T13:18:56.123Z,11.57
2019-04-04T13:21:25.696Z,11.55
2019-04-04T13:23:55.175Z,11.56
2019-04-04T13:26:24.799Z,11.59
2019-04-04T13:28:54.268Z,11.60
2019-04-04T13:31:23.758Z,11.60
2019-04-04T13:33:53.420Z,11.59
2019-04-04T13:36:22.940Z,11.58
2019-04-04T13:38:55.012Z,11.57
2019-04-04T13:41:23.627Z,11.58
2019-04-04T13:43:53.611Z,11.57
2019-04-04T13:46:25.891Z,11.55
2019-04-04T13:48:54.963Z,11.53
2019-04-04T13:51:25.636Z,11.51
2019-04-04T13:53:55.194Z,11.49
2019-04-04T13:56:24.702Z,11.49
2019-04-04T13:58:54.193Z,11.51
2019-04-04T14:01:25.347Z,11.52
2019-04-04T14:03:55.142Z,11.54
2019-04-04T14:06:24.664Z,11.53
2019-04-04T14:08:54.218Z,11.52
2019-04-04T14:11:23.753Z,11.50
2019-04-04T14:13:53.269Z,11.47
2019-04-04T14:16:22.771Z,11.43
2019-04-04T14:18:52.231Z,11.39
2019-04-04T14:21:21.849Z,11.35
2019-04-04T14:23:52.898Z,11.33
2019-04-04T14:26:22.949Z,11.31
2019-04-04T14:28:52.410Z,11.30
2019-04-04T14:31:21.983Z,11.31
2019-04-04T14:33:51.432Z,11.33
2019-04-04T14:36:21.059Z,11.36
2019-04-04T14:38:50.592Z,11.40
2019-04-04T14:41:20.096Z,11.43
2019-04-04T14:43:49.589Z,11.49
2019-04-04T14:46:19.078Z,11.53
2019-04-04T14:48:48.643Z,11.54
2019-04-04T14:51:18.258Z,11.56
2019-04-04T14:53:47.725Z,11.57
2019-04-04T14:56:17.235Z,11.56
2019-04-04T14:58:46.689Z,11.54
2019-04-04T15:01:16.250Z,11.51
2019-04-04T15:03:45.753Z,11.49
2019-04-04T15:06:15.241Z,11.47
2019-04-04T15:08:44.770Z,11.46
2019-04-04T15:11:23.918Z,11.46
2019-04-04T15:13:45.477Z,11.46
2019-04-04T15:16:18.976Z,11.46
2019-04-04T15:18:48.817Z,11.46
2019-04-04T15:21:18.445Z,11.47
2019-04-04T15:23:47.923Z,11.49
2019-04-04T15:26:17.414Z,11.52
2019-04-04T15:28:46.976Z,11.51
2019-04-04T15:31:16.510Z,11.52
2019-04-04T15:33:46.185Z,11.52
2019-04-04T15:36:15.679Z,11.53
2019-04-04T15:38:45.203Z,11.53
2019-04-04T15:41:15.673Z,11.53
2019-04-04T15:43:45.201Z,11.53
2019-04-04T15:46:14.697Z,11.54
2019-04-04T15:48:44.192Z,11.55
2019-04-04T15:51:13.840Z,11.54
2019-04-04T15:53:43.315Z,11.53
2019-04-04T15:56:12.887Z,11.52
2019-04-04T15:58:42.365Z,11.53
2019-04-04T16:01:11.862Z,11.54
2019-04-04T16:03:41.362Z,11.55
2019-04-04T16:06:10.916Z,11.57
2019-04-04T16:08:40.409Z,11.58
2019-04-04T16:11:09.903Z,11.60
2019-04-04T16:13:39.363Z,11.63
2019-04-04T16:16:08.956Z,11.64
2019-04-04T16:18:38.440Z,11.66
2019-04-04T16:21:08.163Z,11.67
2019-04-04T16:23:37.658Z,11.68
2019-04-04T16:26:07.218Z,11.66
2019-04-04T16:28:36.860Z,11.65
2019-04-04T16:31:06.473Z,11.62
2019-04-04T16:33:36.003Z,11.60
2019-04-04T16:36:05.718Z,11.56
2019-04-04T16:38:35.222Z,11.52
2019-04-04T16:41:04.842Z,11.49
2019-04-04T16:43:34.405Z,11.46
2019-04-04T16:46:03.962Z,11.42
2019-04-04T16:48:33.576Z,11.39
2019-04-04T16:51:03.250Z,11.39
2019-04-04T16:53:33.970Z,11.38
2019-04-04T16:56:03.582Z,11.38
2019-04-04T16:58:33.086Z,11.37
2019-04-04T17:01:02.664Z,11.37
2019-04-04T17:03:34.365Z,11.37
2019-04-04T17:06:03.696Z,11.35
2019-04-04T17:08:33.274Z,11.33
2019-04-04T17:11:02.870Z,11.31
2019-04-04T17:13:32.362Z,11.26
2019-04-04T17:16:02.002Z,11.19
2019-04-04T17:18:31.541Z,11.13
2019-04-04T17:21:01.184Z,11.05
2019-04-04T17:23:30.659Z,10.98
2019-04-04T17:26:00.188Z,10.90
2019-04-04T17:28:29.902Z,10.84
2019-04-04T17:30:59.593Z,10.81
2019-04-04T17:33:29.756Z,10.77
2019-04-04T17:35:59.334Z,10.74
2019-04-04T17:38:28.810Z,10.73
2019-04-04T17:40:58.560Z,10.70
2019-04-04T17:43:28.076Z,10.67
2019-04-04T17:45:57.639Z,10.64
2019-04-04T17:48:28.064Z,10.63
2019-04-04T17:50:58.001Z,10.62
2019-04-04T17:53:27.545Z,10.59
2019-04-04T17:55:57.138Z,10.58
2019-04-04T17:58:26.654Z,10.55
2019-04-04T18:00:56.273Z,10.54
2019-04-04T18:03:25.856Z,10.53
2019-04-04T18:05:55.423Z,10.50
2019-04-04T18:08:24.925Z,10.49
2019-04-04T18:10:54.400Z,10.48
2019-04-04T18:13:23.904Z,10.47
2019-04-04T18:15:53.537Z,10.45
2019-04-04T18:18:23.127Z,10.44
2019-04-04T18:20:52.671Z,10.43
2019-04-04T18:23:22.310Z,10.41
2019-04-04T18:25:51.808Z,10.40
2019-04-04T18:28:21.320Z,10.37
2019-04-04T18:30:51.127Z,10.36
2019-04-04T18:33:20.679Z,10.32
2019-04-04T18:35:50.220Z,10.30
2019-04-04T18:38:19.817Z,10.27
2019-04-04T18:40:49.364Z,10.25
2019-04-04T18:43:19.117Z,10.21
2019-04-04T18:45:48.578Z,10.20
2019-04-04T18:48:18.069Z,10.16
2019-04-04T18:50:47.637Z,10.13
2019-04-04T18:53:17.114Z,10.09
2019-04-04T18:55:46.805Z,10.05
2019-04-04T18:58:16.218Z,9.99
2019-04-04T19:00:47.087Z,9.92
2019-04-04T19:03:16.684Z,9.86
2019-04-04T19:05:46.397Z,9.81
2019-04-04T19:08:15.931Z,9.73
2019-04-04T19:10:45.500Z,9.65
2019-04-04T19:13:14.991Z,9.58
2019-04-04T19:15:44.757Z,9.51
2019-04-04T19:18:14.233Z,9.42
2019-04-04T19:20:43.781Z,9.34
2019-04-04T19:23:13.228Z,9.27
2019-04-04T19:25:42.790Z,9.19
2019-04-04T19:28:12.302Z,9.12
2019-04-04T19:30:42.114Z,9.05
2019-04-04T19:33:11.610Z,8.98
2019-04-04T19:35:41.062Z,8.91
2019-04-04T19:38:10.593Z,8.85
2019-04-04T19:40:40.117Z,8.79
2019-04-04T19:43:18.020Z,8.72
2019-04-04T19:45:40.805Z,8.66
2019-04-04T19:48:10.317Z,8.59
2019-04-04T19:50:39.769Z,8.53
2019-04-04T19:53:09.269Z,8.47
2019-04-04T19:55:42.316Z,8.41
2019-04-04T19:58:11.022Z,8.32
2019-04-04T20:00:40.470Z,8.24
2019-04-04T20:03:10.035Z,8.17
2019-04-04T20:05:39.508Z,8.12
2019-04-04T20:08:09.043Z,8.07
2019-04-04T20:10:38.550Z,8.02
2019-04-04T20:13:08.086Z,7.96
2019-04-04T20:15:37.594Z,7.90
2019-04-04T20:18:07.172Z,7.83
2019-04-04T20:20:37.288Z,7.79
2019-04-04T20:23:06.902Z,7.74
2019-04-04T20:25:36.587Z,7.69
2019-04-04T20:28:06.081Z,7.66
2019-04-04T20:30:40.402Z,7.63
2019-04-04T20:33:10.215Z,7.59
2019-04-04T20:35:39.679Z,7.57
2019-04-04T20:38:09.382Z,7.56
2019-04-04T20:40:38.976Z,7.52
2019-04-04T20:43:08.481Z,7.51
2019-04-04T20:45:38.028Z,7.48
2019-04-04T20:48:07.572Z,7.46
2019-04-04T20:50:37.135Z,7.43
2019-04-04T20:53:06.838Z,7.41
2019-04-04T20:55:36.336Z,7.40
2019-04-04T20:58:06.100Z,7.39
2019-04-04T21:00:35.630Z,7.37
2019-04-04T21:03:05.239Z,7.36
2019-04-04T21:05:34.863Z,7.35
2019-04-04T21:08:04.350Z,7.34
2019-04-04T21:10:33.846Z,7.35
2019-04-04T21:13:03.445Z,7.36
2019-04-04T21:15:33.003Z,7.36
2019-04-04T21:18:02.495Z,7.36
2019-04-04T21:20:31.986Z,7.37
2019-04-04T21:23:01.450Z,7.37
2019-04-04T21:25:31.499Z,7.40
2019-04-04T21:28:01.172Z,7.40
2019-04-04T21:30:30.641Z,7.41
2019-04-04T21:33:00.127Z,7.41
2019-04-04T21:35:29.662Z,7.43
2019-04-04T21:37:59.133Z,7.44
2019-04-04T21:40:28.791Z,7.44
2019-04-04T21:42:58.451Z,7.44
2019-04-04T21:45:27.924Z,7.43
2019-04-04T21:47:57.396Z,7.43
2019-04-04T21:50:26.865Z,7.42
2019-04-04T21:52:56.377Z,7.41
2019-04-04T21:55:25.869Z,7.40
2019-04-04T21:57:55.340Z,7.40
2019-04-04T22:00:26.650Z,7.37
2019-04-04T22:02:56.130Z,7.35
2019-04-04T22:05:25.663Z,7.33
2019-04-04T22:07:55.163Z,7.31
2019-04-04T22:10:24.657Z,7.28
2019-04-04T22:12:54.123Z,7.25
2019-04-04T22:15:23.694Z,7.21
2019-04-04T22:17:53.200Z,7.18
2019-04-04T22:20:22.801Z,7.15
2019-04-04T22:22:52.370Z,7.12
2019-04-04T22:25:22.380Z,7.10
2019-04-04T22:27:51.868Z,7.06
2019-04-04T22:30:21.470Z,7.04
2019-04-04T22:32:50.929Z,7.00
2019-04-04T22:35:20.379Z,6.98
2019-04-04T22:37:49.871Z,6.96
2019-04-04T22:40:19.429Z,6.92
2019-04-04T22:42:49.144Z,6.89
2019-04-04T22:45:18.848Z,6.85
2019-04-04T22:47:48.352Z,6.82
2019-04-04T22:50:17.991Z,6.80
2019-04-04T22:52:47.512Z,6.77
2019-04-04T22:55:16.978Z,6.75
2019-04-04T22:57:46.530Z,6.72
2019-04-04T23:00:16.892Z,6.69
2019-04-04T23:02:46.362Z,6.66
2019-04-04T23:05:15.873Z,6.64
2019-04-04T23:07:45.370Z,6.61
2019-04-04T23:10:15.247Z,6.59
2019-04-04T23:12:44.847Z,6.57
2019-04-04T23:15:14.333Z,6.54
2019-04-04T23:17:45.484Z,6.52
2019-04-04T23:20:15.344Z,6.50
2019-04-04T23:22:52.725Z,6.47
2019-04-04T23:25:16.020Z,6.46
2019-04-04T23:27:45.495Z,6.43
2019-04-04T23:30:15.388Z,6.41
2019-04-04T23:32:44.846Z,6.39
2019-04-04T23:35:16.644Z,6.36
2019-04-04T23:37:45.737Z,6.37
2019-04-04T23:40:15.264Z,6.37
2019-04-04T23:42:44.703Z,6.37
2019-04-04T23:45:14.261Z,6.38
2019-04-04T23:47:43.804Z,6.38
2019-04-04T23:50:13.663Z,6.39
2019-04-04T23:52:43.124Z,6.40
2019-04-04T23:55:12.677Z,6.42
2019-04-04T23:57:42.128Z,6.43
